MU04 weather

Broadwater Airport
Malden, Missouri, United States

Public forecast

Using degrees Fahrenheit for public forecast. Weather courtesy of forecast.io.

Closest aviation weather report (METAR) to Broadwater Airport

Closest report is Poplar Bluff Municipal Airport, 22.4 nm (41.5 km) WNW. Retrieved 2020/03/28 14:53 UTC (25 minutes ago):

KPOF 281453Z AUTO 18009G17KT 10SM OVC019 21/18 A2974 RMK AO2 RAB24E43 SLP068 P0000 60000 T02110178 53007

Closest aviation forecast (TAF) to Broadwater Airport

Closest forecast is Cape Girardeau Regional Airport, 41.7 nm (77.2 km) NNE. Retrieved 2020/03/28 12:24 UTC (3 hours ago):

TAF KCGI 281121Z 2812/2912 19013G22KT P6SM SCT060 OVC180 WS020/23040KT FM281800 20013G23KT P6SM OVC050 FM282100 20013G23KT P6SM VCTS BKN040CB FM290100 21012G22KT P6SM BKN150 FM290500 24013G22KT P6SM SCT200